Albemarle, North Carolina
Current Conditions -  °F | °C
As of 2:35 AM on Wednesday 22 Oct 2014 (Local Time) from KVUJ Reporting Station
Clear Clear  
Wind Chill: 11°   Ceiling: Unl
Heat Index: 11°   Visibility: 10mi
Dew Point:   Wind: 10mph
Humidity: 63%   Direction: 340°NNW
Pressure: 30.01"   Gusts: 17mph
Location:  35.35°N, 80.19°W
Report Text: KVUJ 220635Z AUTO 34009G15KT 10SM CLR 11/04 A3001 RMK AO2 LTG DSNT E T01100042
Loading
Personal Weather Stations






























Interactive Weather Map
Tropical Storm Tracking
New forecast layout! Learn more

10-Day Weather Forecast

Advertisements
Track Severe Weather on mobile